ASX306 EHAM-LOWW
Flight info
| Callsign | ASX306 |
|---|---|
| Flight time | 1h 25m |
| Altitude | 37000 |
| Route | ARNEM L620 HMM DCT NOMKA DCT OMELO DCT EVIKU DCT BITSI DCT MIKOV MIKOV8W |
| Aircraft | CL60/M-SBDE1E2E3FGHIJ1J4J5J7M3RWXYZ/LB1V1D1 |
Departure
| Time | 2026-05-05 20:01 |
|---|---|
| Airport | Amsterdam Airport Schiphol (EHAM) |
Arrival
| Time | 2026-05-05 21:27 |
|---|---|
| Airport | Vienna International Airport (LOWW) |
| Time | Latitude | Longitude | Altitude | Speed | Heading |
|---|---|---|---|---|---|
| 2026-05-05 19:37 | 52.30985 | 4.75352 | -3 ft | 0 kts | 147° |
| 2026-05-05 19:49 | 52.30985 | 4.75353 | -3 ft | 0 kts | 147° |
| 2026-05-05 19:49 | 52.30985 | 4.75352 | -3 ft | 1 kts | 147° |
| 2026-05-05 19:49 | 52.30998 | 4.75339 | -3 ft | 2 kts | 147° |
| 2026-05-05 19:50 | 52.31005 | 4.75331 | -3 ft | 2 kts | 142° |
| 2026-05-05 19:50 | 52.31015 | 4.75312 | -3 ft | 2 kts | 115° |
| 2026-05-05 19:50 | 52.31018 | 4.75288 | -3 ft | 2 kts | 89° |
| 2026-05-05 19:50 | 52.31014 | 4.75265 | -3 ft | 2 kts | 63° |
| 2026-05-05 19:51 | 52.31012 | 4.75257 | -3 ft | 0 kts | 57° |
| 2026-05-05 19:51 | 52.31012 | 4.75258 | -3 ft | 0 kts | 57° |
| 2026-05-05 19:54 | 52.31017 | 4.75270 | -3 ft | 3 kts | 57° |
| 2026-05-05 19:55 | 52.31046 | 4.75297 | -3 ft | 6 kts | 24° |
| 2026-05-05 19:55 | 52.31094 | 4.75357 | -3 ft | 10 kts | 53° |
| 2026-05-05 19:55 | 52.31148 | 4.75459 | -3 ft | 13 kts | 20° |
| 2026-05-05 19:55 | 52.31251 | 4.75456 | -3 ft | 16 kts | 357° |
| 2026-05-05 19:56 | 52.31360 | 4.75446 | -3 ft | 13 kts | 356° |
| 2026-05-05 19:56 | 52.31423 | 4.75378 | -3 ft | 12 kts | 284° |
| 2026-05-05 19:56 | 52.31420 | 4.75218 | -3 ft | 15 kts | 267° |
| 2026-05-05 19:56 | 52.31415 | 4.75019 | -2 ft | 19 kts | 266° |
| 2026-05-05 19:57 | 52.31407 | 4.74779 | -2 ft | 22 kts | 267° |
| 2026-05-05 19:57 | 52.31399 | 4.74602 | -3 ft | 24 kts | 266° |
| 2026-05-05 19:57 | 52.31389 | 4.74245 | -3 ft | 18 kts | 266° |
| 2026-05-05 19:57 | 52.31338 | 4.74126 | -3 ft | 14 kts | 181° |
| 2026-05-05 19:58 | 52.31228 | 4.74123 | -3 ft | 17 kts | 183° |
| 2026-05-05 19:58 | 52.31091 | 4.74112 | -3 ft | 21 kts | 184° |
| 2026-05-05 19:58 | 52.30930 | 4.74094 | -3 ft | 24 kts | 184° |
| 2026-05-05 19:58 | 52.30749 | 4.74078 | -4 ft | 23 kts | 184° |
| 2026-05-05 19:59 | 52.30635 | 4.74065 | -4 ft | 8 kts | 193° |
| 2026-05-05 19:59 | 52.30596 | 4.73974 | -4 ft | 11 kts | 277° |
| 2026-05-05 19:59 | 52.30607 | 4.73931 | -4 ft | 3 kts | 307° |
| 2026-05-05 19:59 | 52.30641 | 4.73896 | -4 ft | 7 kts | 335° |
| 2026-05-05 20:00 | 52.30701 | 4.73849 | -4 ft | 11 kts | 334° |
| 2026-05-05 20:00 | 52.30776 | 4.73807 | -4 ft | 12 kts | 347° |
| 2026-05-05 20:00 | 52.30837 | 4.73795 | -4 ft | 6 kts | 357° |
| 2026-05-05 20:00 | 52.30894 | 4.73797 | -4 ft | 9 kts | 2° |
| 2026-05-05 20:01 | 52.31049 | 4.73817 | -4 ft | 58 kts | 4° |
| 2026-05-05 20:01 | 52.31814 | 4.73874 | -3 ft | 154 kts | 2° |
| 2026-05-05 20:01 | 52.33008 | 4.73998 | 664 ft | 183 kts | 9° |
| 2026-05-05 20:01 | 52.34247 | 4.74317 | 1974 ft | 185 kts | 16° |
| 2026-05-05 20:02 | 52.35390 | 4.74932 | 3332 ft | 182 kts | 24° |
| 2026-05-05 20:02 | 52.36615 | 4.75815 | 4235 ft | 205 kts | 26° |
| 2026-05-05 20:02 | 52.37953 | 4.76891 | 5095 ft | 232 kts | 34° |
| 2026-05-05 20:02 | 52.39148 | 4.78877 | 5747 ft | 260 kts | 49° |
| 2026-05-05 20:03 | 52.40376 | 4.81124 | 5705 ft | 266 kts | 46° |
| 2026-05-05 20:03 | 52.41613 | 4.83342 | 5583 ft | 272 kts | 52° |
| 2026-05-05 20:03 | 52.42370 | 4.86358 | 6325 ft | 301 kts | 83° |
| 2026-05-05 20:03 | 52.42373 | 4.89676 | 8118 ft | 293 kts | 89° |
| 2026-05-05 20:04 | 52.42379 | 4.92917 | 9729 ft | 292 kts | 88° |
| 2026-05-05 20:04 | 52.42259 | 4.96139 | 11177 ft | 295 kts | 101° |
| 2026-05-05 20:04 | 52.41511 | 4.99207 | 12571 ft | 300 kts | 122° |
| 2026-05-05 20:04 | 52.40065 | 5.01671 | 13782 ft | 308 kts | 142° |
| 2026-05-05 20:05 | 52.38318 | 5.03691 | 14932 ft | 315 kts | 144° |
| 2026-05-05 20:05 | 52.36555 | 5.05715 | 16157 ft | 316 kts | 143° |
| 2026-05-05 20:05 | 52.34769 | 5.07796 | 17372 ft | 317 kts | 141° |
| 2026-05-05 20:05 | 52.33275 | 5.10468 | 18470 ft | 318 kts | 120° |
| 2026-05-05 20:06 | 52.32368 | 5.13758 | 19383 ft | 324 kts | 111° |
| 2026-05-05 20:06 | 52.31549 | 5.17246 | 20255 ft | 332 kts | 111° |
| 2026-05-05 20:06 | 52.30701 | 5.20820 | 21118 ft | 339 kts | 112° |
| 2026-05-05 20:06 | 52.29850 | 5.24401 | 21967 ft | 344 kts | 112° |
| 2026-05-05 20:07 | 52.28978 | 5.28061 | 22769 ft | 350 kts | 113° |
| 2026-05-05 20:07 | 52.28096 | 5.31757 | 23553 ft | 356 kts | 113° |
| 2026-05-05 20:07 | 52.27185 | 5.35564 | 24405 ft | 360 kts | 113° |
| 2026-05-05 20:07 | 52.26265 | 5.39405 | 25327 ft | 362 kts | 114° |
| 2026-05-05 20:08 | 52.25342 | 5.43250 | 26207 ft | 364 kts | 114° |
| 2026-05-05 20:08 | 52.24411 | 5.47123 | 27025 ft | 367 kts | 114° |
| 2026-05-05 20:08 | 52.23481 | 5.50981 | 27780 ft | 370 kts | 114° |
| 2026-05-05 20:08 | 52.22522 | 5.54954 | 28537 ft | 372 kts | 114° |
| 2026-05-05 20:09 | 52.21572 | 5.58880 | 29218 ft | 376 kts | 114° |
| 2026-05-05 20:09 | 52.20611 | 5.62842 | 29837 ft | 379 kts | 114° |
| 2026-05-05 20:09 | 52.19647 | 5.66813 | 30459 ft | 382 kts | 115° |
| 2026-05-05 20:09 | 52.18654 | 5.70897 | 31039 ft | 386 kts | 115° |
| 2026-05-05 20:10 | 52.17660 | 5.74975 | 31593 ft | 388 kts | 115° |
| 2026-05-05 20:10 | 52.16657 | 5.79081 | 32103 ft | 391 kts | 115° |
| 2026-05-05 20:10 | 52.15643 | 5.83224 | 32655 ft | 392 kts | 116° |
| 2026-05-05 20:10 | 52.14640 | 5.87315 | 33088 ft | 395 kts | 116° |
| 2026-05-05 20:11 | 52.13621 | 5.91465 | 33542 ft | 397 kts | 116° |
| 2026-05-05 20:11 | 52.12593 | 5.95646 | 34069 ft | 397 kts | 116° |
| 2026-05-05 20:11 | 52.11568 | 5.99807 | 34630 ft | 395 kts | 116° |
| 2026-05-05 20:11 | 52.10555 | 6.03918 | 35233 ft | 390 kts | 117° |
| 2026-05-05 20:12 | 52.09657 | 6.08075 | 35593 ft | 393 kts | 109° |
| 2026-05-05 20:12 | 52.09123 | 6.12450 | 35843 ft | 398 kts | 104° |
| 2026-05-05 20:12 | 52.08673 | 6.16856 | 36072 ft | 400 kts | 104° |
| 2026-05-05 20:12 | 52.08208 | 6.21330 | 36257 ft | 402 kts | 104° |
| 2026-05-05 20:13 | 52.07740 | 6.25831 | 36467 ft | 403 kts | 104° |
| 2026-05-05 20:13 | 52.07274 | 6.30284 | 36700 ft | 404 kts | 104° |
| 2026-05-05 20:13 | 52.06800 | 6.34797 | 36854 ft | 409 kts | 104° |
| 2026-05-05 20:14 | 52.05812 | 6.44118 | 36864 ft | 426 kts | 103° |
| 2026-05-05 20:14 | 52.04783 | 6.53768 | 36870 ft | 442 kts | 103° |
| 2026-05-05 20:15 | 52.03714 | 6.63715 | 36861 ft | 451 kts | 103° |
| 2026-05-05 20:15 | 52.02615 | 6.73865 | 36859 ft | 454 kts | 104° |
| 2026-05-05 20:16 | 52.01211 | 6.83831 | 36864 ft | 450 kts | 108° |
| 2026-05-05 20:16 | 51.99658 | 6.93629 | 36870 ft | 449 kts | 108° |
| 2026-05-05 20:17 | 51.98084 | 7.03524 | 36872 ft | 449 kts | 108° |
| 2026-05-05 20:17 | 51.96465 | 7.13268 | 36838 ft | 448 kts | 110° |
| 2026-05-05 20:18 | 51.94690 | 7.22849 | 36841 ft | 446 kts | 110° |
| 2026-05-05 20:18 | 51.92888 | 7.32525 | 36842 ft | 446 kts | 110° |
| 2026-05-05 20:19 | 51.91094 | 7.42116 | 36839 ft | 447 kts | 110° |
| 2026-05-05 20:19 | 51.89282 | 7.51761 | 36854 ft | 446 kts | 111° |
| 2026-05-05 20:20 | 51.87461 | 7.61404 | 36837 ft | 445 kts | 110° |
| 2026-05-05 20:20 | 51.85656 | 7.71032 | 36834 ft | 446 kts | 109° |
| 2026-05-05 20:21 | 51.84299 | 7.80895 | 36811 ft | 448 kts | 107° |
| 2026-05-05 20:21 | 51.82979 | 7.90736 | 36825 ft | 447 kts | 107° |
| 2026-05-05 20:22 | 51.81651 | 8.00560 | 36830 ft | 447 kts | 107° |
| 2026-05-05 20:22 | 51.80324 | 8.10299 | 36832 ft | 447 kts | 107° |
| 2026-05-05 20:23 | 51.78979 | 8.20103 | 36828 ft | 447 kts | 107° |
| 2026-05-05 20:23 | 51.77629 | 8.29867 | 36828 ft | 446 kts | 107° |
| 2026-05-05 20:24 | 51.76272 | 8.39624 | 36823 ft | 446 kts | 107° |
| 2026-05-05 20:24 | 51.74909 | 8.49352 | 36823 ft | 446 kts | 107° |
| 2026-05-05 20:25 | 51.73531 | 8.59125 | 36827 ft | 446 kts | 108° |
| 2026-05-05 20:25 | 51.72147 | 8.68868 | 36816 ft | 446 kts | 108° |
| 2026-05-05 20:26 | 51.70752 | 8.78635 | 36819 ft | 445 kts | 108° |
| 2026-05-05 20:26 | 51.69356 | 8.88334 | 36810 ft | 446 kts | 108° |
| 2026-05-05 20:27 | 51.67954 | 8.98023 | 36809 ft | 445 kts | 108° |
| 2026-05-05 20:27 | 51.66537 | 9.07748 | 36804 ft | 445 kts | 108° |
| 2026-05-05 20:28 | 51.65123 | 9.17397 | 36808 ft | 445 kts | 108° |
| 2026-05-05 20:28 | 51.63691 | 9.27107 | 36803 ft | 445 kts | 108° |
| 2026-05-05 20:29 | 51.62264 | 9.36721 | 36807 ft | 446 kts | 108° |
| 2026-05-05 20:29 | 51.60809 | 9.46457 | 36806 ft | 446 kts | 108° |
| 2026-05-05 20:30 | 51.59360 | 9.56101 | 36807 ft | 446 kts | 108° |
| 2026-05-05 20:30 | 51.57902 | 9.65748 | 36807 ft | 446 kts | 109° |
| 2026-05-05 20:31 | 51.56427 | 9.75446 | 36804 ft | 447 kts | 109° |
| 2026-05-05 20:31 | 51.54947 | 9.85118 | 36809 ft | 446 kts | 109° |
| 2026-05-05 20:32 | 51.53457 | 9.94793 | 36809 ft | 447 kts | 109° |
| 2026-05-05 20:32 | 51.51952 | 10.04522 | 36801 ft | 447 kts | 109° |
| 2026-05-05 20:33 | 51.50449 | 10.14171 | 36792 ft | 447 kts | 109° |
| 2026-05-05 20:33 | 51.48944 | 10.23774 | 36799 ft | 447 kts | 109° |
| 2026-05-05 20:34 | 51.47414 | 10.33478 | 36802 ft | 449 kts | 109° |
| 2026-05-05 20:34 | 51.45871 | 10.43204 | 36800 ft | 449 kts | 109° |
| 2026-05-05 20:35 | 51.44333 | 10.52883 | 36804 ft | 449 kts | 109° |
| 2026-05-05 20:35 | 51.42799 | 10.62594 | 36797 ft | 451 kts | 108° |
| 2026-05-05 20:36 | 51.41238 | 10.72415 | 36797 ft | 451 kts | 109° |
| 2026-05-05 20:36 | 51.39690 | 10.82106 | 36793 ft | 451 kts | 109° |
| 2026-05-05 20:37 | 51.38128 | 10.91832 | 36803 ft | 451 kts | 109° |
| 2026-05-05 20:37 | 51.36559 | 11.01534 | 36787 ft | 452 kts | 109° |
| 2026-05-05 20:38 | 51.34980 | 11.11241 | 36790 ft | 453 kts | 109° |
| 2026-05-05 20:38 | 51.33382 | 11.21012 | 36790 ft | 453 kts | 109° |
| 2026-05-05 20:39 | 51.31788 | 11.30706 | 36783 ft | 452 kts | 109° |
| 2026-05-05 20:39 | 51.30183 | 11.40411 | 36794 ft | 452 kts | 109° |
| 2026-05-05 20:40 | 51.28575 | 11.50071 | 36799 ft | 452 kts | 109° |
| 2026-05-05 20:40 | 51.26957 | 11.59739 | 36793 ft | 453 kts | 109° |
| 2026-05-05 20:41 | 51.25326 | 11.69433 | 36794 ft | 452 kts | 110° |
| 2026-05-05 20:41 | 51.23684 | 11.79138 | 36790 ft | 452 kts | 110° |
| 2026-05-05 20:42 | 51.22036 | 11.88824 | 36792 ft | 452 kts | 110° |
| 2026-05-05 20:42 | 51.20379 | 11.98509 | 36790 ft | 453 kts | 109° |
| 2026-05-05 20:43 | 51.18716 | 12.08170 | 36793 ft | 452 kts | 110° |
| 2026-05-05 20:43 | 51.17049 | 12.17810 | 36786 ft | 452 kts | 110° |
| 2026-05-05 20:44 | 51.15371 | 12.27455 | 36783 ft | 453 kts | 110° |
| 2026-05-05 20:44 | 51.13685 | 12.37091 | 36783 ft | 453 kts | 110° |
| 2026-05-05 20:45 | 51.11139 | 12.51553 | 36776 ft | 453 kts | 109° |
| 2026-05-05 20:45 | 51.09421 | 12.61240 | 36777 ft | 453 kts | 109° |
| 2026-05-05 20:46 | 51.07680 | 12.71007 | 36779 ft | 454 kts | 110° |
| 2026-05-05 20:46 | 51.05939 | 12.80721 | 36768 ft | 454 kts | 110° |
| 2026-05-05 20:47 | 51.04197 | 12.90389 | 36773 ft | 454 kts | 110° |
| 2026-05-05 20:47 | 51.02443 | 13.00075 | 36762 ft | 454 kts | 110° |
| 2026-05-05 20:48 | 51.00674 | 13.09783 | 36763 ft | 455 kts | 110° |
| 2026-05-05 20:48 | 50.98894 | 13.19514 | 36761 ft | 456 kts | 110° |
| 2026-05-05 20:49 | 50.97112 | 13.29194 | 36753 ft | 456 kts | 110° |
| 2026-05-05 20:49 | 50.95326 | 13.38850 | 36753 ft | 457 kts | 110° |
| 2026-05-05 20:50 | 50.93527 | 13.48524 | 36757 ft | 457 kts | 110° |
| 2026-05-05 20:50 | 50.91723 | 13.58169 | 36767 ft | 458 kts | 110° |
| 2026-05-05 20:51 | 50.89892 | 13.67914 | 36755 ft | 459 kts | 110° |
| 2026-05-05 20:51 | 50.88053 | 13.77652 | 36766 ft | 459 kts | 110° |
| 2026-05-05 20:52 | 50.86215 | 13.87332 | 36749 ft | 460 kts | 110° |
| 2026-05-05 20:52 | 50.83941 | 13.96683 | 36744 ft | 454 kts | 122° |
| 2026-05-05 20:53 | 50.80393 | 14.04723 | 36744 ft | 447 kts | 135° |
| 2026-05-05 20:53 | 50.75895 | 14.11500 | 36745 ft | 446 kts | 141° |
| 2026-05-05 20:54 | 50.71316 | 14.18092 | 36746 ft | 447 kts | 141° |
| 2026-05-05 20:54 | 50.66689 | 14.24739 | 36751 ft | 448 kts | 141° |
| 2026-05-05 20:55 | 50.62043 | 14.31394 | 36751 ft | 449 kts | 141° |
| 2026-05-05 20:55 | 50.57431 | 14.37983 | 36750 ft | 449 kts | 141° |
| 2026-05-05 20:56 | 50.52779 | 14.44614 | 36742 ft | 450 kts | 141° |
| 2026-05-05 20:56 | 50.48128 | 14.51224 | 36735 ft | 449 kts | 140° |
| 2026-05-05 20:57 | 50.43528 | 14.57996 | 36732 ft | 451 kts | 138° |
| 2026-05-05 20:57 | 50.39038 | 14.64819 | 36736 ft | 450 kts | 138° |
| 2026-05-05 20:58 | 50.34513 | 14.71673 | 36732 ft | 451 kts | 139° |
| 2026-05-05 20:58 | 50.29955 | 14.78557 | 36722 ft | 451 kts | 139° |
| 2026-05-05 20:59 | 50.25415 | 14.85393 | 36722 ft | 451 kts | 139° |
| 2026-05-05 20:59 | 50.20839 | 14.92265 | 36724 ft | 451 kts | 139° |
| 2026-05-05 21:00 | 50.16315 | 14.99040 | 36737 ft | 451 kts | 138° |
| 2026-05-05 21:00 | 50.11776 | 15.05818 | 36746 ft | 452 kts | 138° |
| 2026-05-05 21:01 | 50.07189 | 15.12650 | 36747 ft | 452 kts | 139° |
| 2026-05-05 21:01 | 50.02635 | 15.19413 | 36745 ft | 452 kts | 138° |
| 2026-05-05 21:02 | 49.98078 | 15.26162 | 36742 ft | 452 kts | 139° |
| 2026-05-05 21:02 | 49.93528 | 15.32880 | 36746 ft | 452 kts | 139° |
| 2026-05-05 21:03 | 49.88988 | 15.39567 | 36748 ft | 453 kts | 139° |
| 2026-05-05 21:03 | 49.84363 | 15.46360 | 36690 ft | 451 kts | 139° |
| 2026-05-05 21:04 | 49.82110 | 15.49663 | 36221 ft | 446 kts | 139° |
| 2026-05-05 21:04 | 49.79861 | 15.52956 | 35689 ft | 442 kts | 138° |
| 2026-05-05 21:04 | 49.77640 | 15.56201 | 35114 ft | 439 kts | 138° |
| 2026-05-05 21:04 | 49.75452 | 15.59395 | 34544 ft | 435 kts | 137° |
| 2026-05-05 21:05 | 49.73270 | 15.62576 | 33982 ft | 430 kts | 138° |
| 2026-05-05 21:05 | 49.71112 | 15.65719 | 33433 ft | 425 kts | 139° |
| 2026-05-05 21:05 | 49.68962 | 15.68846 | 32854 ft | 420 kts | 139° |
| 2026-05-05 21:05 | 49.66846 | 15.71919 | 32310 ft | 416 kts | 139° |
| 2026-05-05 21:06 | 49.64758 | 15.74949 | 31768 ft | 411 kts | 140° |
| 2026-05-05 21:06 | 49.62688 | 15.77948 | 31216 ft | 407 kts | 140° |
| 2026-05-05 21:06 | 49.60645 | 15.80906 | 30683 ft | 404 kts | 140° |
| 2026-05-05 21:06 | 49.58598 | 15.83864 | 30139 ft | 400 kts | 140° |
| 2026-05-05 21:07 | 49.56581 | 15.86776 | 29622 ft | 396 kts | 140° |
| 2026-05-05 21:07 | 49.54605 | 15.89626 | 29090 ft | 393 kts | 140° |
| 2026-05-05 21:07 | 49.52623 | 15.92479 | 28580 ft | 389 kts | 140° |
| 2026-05-05 21:07 | 49.50661 | 15.95303 | 28057 ft | 386 kts | 140° |
| 2026-05-05 21:08 | 49.48712 | 15.98103 | 27554 ft | 382 kts | 140° |
| 2026-05-05 21:08 | 49.46787 | 16.00866 | 27055 ft | 378 kts | 140° |
| 2026-05-05 21:08 | 49.44875 | 16.03607 | 26561 ft | 375 kts | 140° |
| 2026-05-05 21:08 | 49.42971 | 16.06332 | 26071 ft | 372 kts | 140° |
| 2026-05-05 21:09 | 49.41087 | 16.09027 | 25579 ft | 368 kts | 140° |
| 2026-05-05 21:09 | 49.39219 | 16.11696 | 25087 ft | 365 kts | 140° |
| 2026-05-05 21:09 | 49.37346 | 16.14370 | 24604 ft | 362 kts | 140° |
| 2026-05-05 21:09 | 49.35421 | 16.17115 | 24101 ft | 358 kts | 140° |
| 2026-05-05 21:10 | 49.33585 | 16.19729 | 23627 ft | 355 kts | 140° |
| 2026-05-05 21:10 | 49.31731 | 16.22202 | 23160 ft | 349 kts | 147° |
| 2026-05-05 21:10 | 49.29559 | 16.23797 | 22679 ft | 341 kts | 167° |
| 2026-05-05 21:10 | 49.27242 | 16.24434 | 22224 ft | 335 kts | 173° |
| 2026-05-05 21:11 | 49.24903 | 16.24943 | 21763 ft | 331 kts | 173° |
| 2026-05-05 21:11 | 49.22646 | 16.25444 | 21330 ft | 328 kts | 173° |
| 2026-05-05 21:11 | 49.20396 | 16.25943 | 20897 ft | 329 kts | 173° |
| 2026-05-05 21:11 | 49.18123 | 16.26444 | 20456 ft | 327 kts | 173° |
| 2026-05-05 21:12 | 49.15880 | 16.26939 | 20022 ft | 325 kts | 173° |
| 2026-05-05 21:12 | 49.13670 | 16.27426 | 19595 ft | 322 kts | 173° |
| 2026-05-05 21:12 | 49.11472 | 16.27910 | 19171 ft | 320 kts | 173° |
| 2026-05-05 21:12 | 49.09273 | 16.28394 | 18746 ft | 317 kts | 173° |
| 2026-05-05 21:13 | 49.07121 | 16.28867 | 18332 ft | 314 kts | 173° |
| 2026-05-05 21:13 | 49.04940 | 16.29346 | 17912 ft | 312 kts | 173° |
| 2026-05-05 21:13 | 49.02823 | 16.29811 | 17491 ft | 309 kts | 173° |
| 2026-05-05 21:13 | 49.00594 | 16.30300 | 17073 ft | 306 kts | 173° |
| 2026-05-05 21:14 | 48.98421 | 16.30776 | 16664 ft | 306 kts | 173° |
| 2026-05-05 21:14 | 48.96216 | 16.31258 | 16218 ft | 306 kts | 173° |
| 2026-05-05 21:14 | 48.93964 | 16.31751 | 15778 ft | 303 kts | 173° |
| 2026-05-05 21:14 | 48.91694 | 16.32247 | 15344 ft | 302 kts | 173° |
| 2026-05-05 21:15 | 48.89394 | 16.32749 | 14889 ft | 301 kts | 173° |
| 2026-05-05 21:15 | 48.87184 | 16.33231 | 14480 ft | 299 kts | 173° |
| 2026-05-05 21:15 | 48.84768 | 16.33758 | 13992 ft | 297 kts | 173° |
| 2026-05-05 21:15 | 48.82426 | 16.34267 | 13555 ft | 295 kts | 173° |
| 2026-05-05 21:16 | 48.80074 | 16.34779 | 13080 ft | 294 kts | 173° |
| 2026-05-05 21:16 | 48.77700 | 16.35295 | 12655 ft | 291 kts | 173° |
| 2026-05-05 21:16 | 48.75330 | 16.35809 | 12188 ft | 291 kts | 173° |
| 2026-05-05 21:16 | 48.73100 | 16.36293 | 11768 ft | 289 kts | 173° |
| 2026-05-05 21:17 | 48.70966 | 16.36755 | 11358 ft | 289 kts | 173° |
| 2026-05-05 21:17 | 48.68836 | 16.37216 | 10949 ft | 288 kts | 173° |
| 2026-05-05 21:17 | 48.66710 | 16.37676 | 10538 ft | 287 kts | 173° |
| 2026-05-05 21:17 | 48.64594 | 16.38133 | 10135 ft | 287 kts | 173° |
| 2026-05-05 21:18 | 48.62435 | 16.38599 | 9712 ft | 288 kts | 173° |
| 2026-05-05 21:18 | 48.60341 | 16.39051 | 9310 ft | 287 kts | 173° |
| 2026-05-05 21:18 | 48.58290 | 16.39493 | 8916 ft | 284 kts | 174° |
| 2026-05-05 21:18 | 48.56274 | 16.39928 | 8529 ft | 280 kts | 174° |
| 2026-05-05 21:19 | 48.54250 | 16.40365 | 8266 ft | 274 kts | 174° |
| 2026-05-05 21:19 | 48.52263 | 16.40798 | 7932 ft | 277 kts | 173° |
| 2026-05-05 21:19 | 48.50337 | 16.41514 | 7580 ft | 278 kts | 167° |
| 2026-05-05 21:19 | 48.48427 | 16.42342 | 7205 ft | 276 kts | 167° |
| 2026-05-05 21:20 | 48.46486 | 16.43177 | 6817 ft | 273 kts | 167° |
| 2026-05-05 21:20 | 48.44629 | 16.43975 | 6459 ft | 270 kts | 168° |
| 2026-05-05 21:20 | 48.42786 | 16.44756 | 6094 ft | 268 kts | 168° |
| 2026-05-05 21:20 | 48.40947 | 16.45524 | 5730 ft | 266 kts | 168° |
| 2026-05-05 21:21 | 48.39167 | 16.46268 | 5370 ft | 263 kts | 168° |
| 2026-05-05 21:21 | 48.37412 | 16.47001 | 5053 ft | 258 kts | 168° |
| 2026-05-05 21:21 | 48.35689 | 16.47733 | 4967 ft | 255 kts | 168° |
| 2026-05-05 21:21 | 48.34031 | 16.48443 | 4951 ft | 237 kts | 168° |
| 2026-05-05 21:22 | 48.32463 | 16.49110 | 4650 ft | 233 kts | 169° |
| 2026-05-05 21:22 | 48.30921 | 16.49769 | 4381 ft | 227 kts | 170° |
| 2026-05-05 21:22 | 48.29426 | 16.50406 | 4085 ft | 223 kts | 170° |
| 2026-05-05 21:22 | 48.27944 | 16.51037 | 3792 ft | 219 kts | 170° |
| 2026-05-05 21:23 | 48.26468 | 16.51666 | 3502 ft | 215 kts | 169° |
| 2026-05-05 21:23 | 48.25057 | 16.52269 | 3232 ft | 205 kts | 169° |
| 2026-05-05 21:23 | 48.23730 | 16.52838 | 2970 ft | 191 kts | 169° |
| 2026-05-05 21:23 | 48.22490 | 16.53365 | 2719 ft | 179 kts | 169° |
| 2026-05-05 21:24 | 48.21294 | 16.53874 | 2484 ft | 167 kts | 170° |
| 2026-05-05 21:24 | 48.20194 | 16.54346 | 2233 ft | 148 kts | 171° |
| 2026-05-05 21:24 | 48.19262 | 16.54753 | 2107 ft | 124 kts | 172° |
| 2026-05-05 21:24 | 48.18443 | 16.55100 | 1914 ft | 117 kts | 172° |
| 2026-05-05 21:25 | 48.17653 | 16.55425 | 1779 ft | 116 kts | 172° |
| 2026-05-05 21:25 | 48.16844 | 16.55754 | 1606 ft | 119 kts | 171° |
| 2026-05-05 21:25 | 48.16034 | 16.56093 | 1455 ft | 120 kts | 169° |
| 2026-05-05 21:25 | 48.15212 | 16.56444 | 1290 ft | 120 kts | 168° |
| 2026-05-05 21:26 | 48.14385 | 16.56799 | 1125 ft | 119 kts | 167° |
| 2026-05-05 21:26 | 48.13575 | 16.57143 | 964 ft | 118 kts | 166° |
| 2026-05-05 21:26 | 48.12753 | 16.57490 | 796 ft | 117 kts | 165° |
| 2026-05-05 21:26 | 48.11949 | 16.57837 | 650 ft | 117 kts | 165° |
| 2026-05-05 21:27 | 48.11209 | 16.58142 | 606 ft | 90 kts | 163° |
| 2026-05-05 21:27 | 48.10873 | 16.58283 | 608 ft | 28 kts | 167° |
| 2026-05-05 21:27 | 48.10698 | 16.58275 | 609 ft | 20 kts | 188° |
| 2026-05-05 21:27 | 48.10577 | 16.58228 | 611 ft | 10 kts | 210° |
| 2026-05-05 21:28 | 48.10520 | 16.58198 | 612 ft | 6 kts | 205° |
| 2026-05-05 21:28 | 48.10494 | 16.58162 | 612 ft | 5 kts | 224° |
| 2026-05-05 21:28 | 48.10473 | 16.58120 | 612 ft | 5 kts | 248° |
| 2026-05-05 21:28 | 48.10486 | 16.58035 | 613 ft | 13 kts | 316° |
| 2026-05-05 21:29 | 48.10603 | 16.57975 | 612 ft | 21 kts | 347° |
| 2026-05-05 21:29 | 48.10770 | 16.57910 | 610 ft | 26 kts | 343° |
| 2026-05-05 21:29 | 48.10965 | 16.57825 | 608 ft | 30 kts | 344° |
| 2026-05-05 21:29 | 48.11138 | 16.57744 | 606 ft | 20 kts | 323° |
| 2026-05-05 21:30 | 48.11217 | 16.57536 | 606 ft | 24 kts | 295° |
| 2026-05-05 21:30 | 48.11298 | 16.57280 | 605 ft | 28 kts | 294° |
| 2026-05-05 21:30 | 48.11395 | 16.56988 | 603 ft | 33 kts | 296° |
| 2026-05-05 21:30 | 48.11502 | 16.56649 | 599 ft | 37 kts | 295° |
| 2026-05-05 21:31 | 48.11628 | 16.56267 | 595 ft | 41 kts | 296° |
| 2026-05-05 21:31 | 48.11762 | 16.55909 | 591 ft | 34 kts | 300° |
| 2026-05-05 21:31 | 48.11851 | 16.55554 | 589 ft | 38 kts | 290° |
| 2026-05-05 21:31 | 48.11978 | 16.55168 | 588 ft | 41 kts | 298° |
| 2026-05-05 21:32 | 48.12099 | 16.54781 | 586 ft | 36 kts | 295° |
| 2026-05-05 21:32 | 48.12110 | 16.54525 | 586 ft | 22 kts | 276° |
| 2026-05-05 21:32 | 48.12183 | 16.54289 | 584 ft | 27 kts | 294° |
| 2026-05-05 21:32 | 48.12269 | 16.54012 | 583 ft | 31 kts | 295° |
| 2026-05-05 21:33 | 48.12363 | 16.53721 | 581 ft | 17 kts | 296° |
| 2026-05-05 21:33 | 48.12449 | 16.53635 | 581 ft | 14 kts | 3° |
| 2026-05-05 21:33 | 48.12572 | 16.53673 | 580 ft | 18 kts | 28° |
| 2026-05-05 21:33 | 48.12662 | 16.53767 | 580 ft | 15 kts | 25° |
| 2026-05-05 21:34 | 48.12697 | 16.53780 | 579 ft | 5 kts | 329° |
| 2026-05-05 21:34 | 48.12714 | 16.53744 | 579 ft | 2 kts | 298° |